sensor_id;sensor_type;location;lat;lon;timestamp;temperature;humidity
13598;DHT22;38563;54.258;12.574;2022-10-24T00:00:25;13.60;99.90
13598;DHT22;38563;54.258;12.574;2022-10-24T00:02:53;13.70;99.90
13598;DHT22;38563;54.258;12.574;2022-10-24T00:05:20;13.60;99.90
13598;DHT22;38563;54.258;12.574;2022-10-24T00:07:48;13.70;99.90
13598;DHT22;38563;54.258;12.574;2022-10-24T00:10:15;13.60;99.90
13598;DHT22;38563;54.258;12.574;2022-10-24T00:12:42;13.60;99.90
13598;DHT22;38563;54.258;12.574;2022-10-24T00:15:09;13.60;99.90
13598;DHT22;38563;54.258;12.574;2022-10-24T00:17:36;13.60;99.90
13598;DHT22;38563;54.258;12.574;2022-10-24T00:20:06;13.60;99.90
13598;DHT22;38563;54.258;12.574;2022-10-24T00:22:33;13.50;99.90
13598;DHT22;38563;54.258;12.574;2022-10-24T00:25:00;13.50;99.90
13598;DHT22;38563;54.258;12.574;2022-10-24T00:27:26;13.50;99.90
13598;DHT22;38563;54.258;12.574;2022-10-24T00:29:53;13.50;99.90
13598;DHT22;38563;54.258;12.574;2022-10-24T00:32:20;13.50;99.90
13598;DHT22;38563;54.258;12.574;2022-10-24T00:34:47;13.50;99.90
13598;DHT22;38563;54.258;12.574;2022-10-24T00:37:15;13.60;99.90
13598;DHT22;38563;54.258;12.574;2022-10-24T00:39:42;13.50;99.90
13598;DHT22;38563;54.258;12.574;2022-10-24T00:42:09;13.60;99.90
13598;DHT22;38563;54.258;12.574;2022-10-24T00:44:38;13.60;99.90
13598;DHT22;38563;54.258;12.574;2022-10-24T00:47:07;13.60;99.90
13598;DHT22;38563;54.258;12.574;2022-10-24T00:49:42;13.70;99.90
13598;DHT22;38563;54.258;12.574;2022-10-24T00:52:10;13.70;99.90
13598;DHT22;38563;54.258;12.574;2022-10-24T00:54:41;13.70;99.90
13598;DHT22;38563;54.258;12.574;2022-10-24T00:57:12;13.70;99.90
13598;DHT22;38563;54.258;12.574;2022-10-24T00:59:41;13.60;99.90
13598;DHT22;38563;54.258;12.574;2022-10-24T01:02:09;13.70;99.90
13598;DHT22;38563;54.258;12.574;2022-10-24T01:04:35;13.80;99.90
13598;DHT22;38563;54.258;12.574;2022-10-24T01:07:13;13.80;99.90
13598;DHT22;38563;54.258;12.574;2022-10-24T01:09:57;13.80;99.90
13598;DHT22;38563;54.258;12.574;2022-10-24T01:12:35;13.90;99.90
13598;DHT22;38563;54.258;12.574;2022-10-24T01:15:14;14.00;99.90
13598;DHT22;38563;54.258;12.574;2022-10-24T01:17:50;14.00;99.90
13598;DHT22;38563;54.258;12.574;2022-10-24T01:20:38;14.00;99.90
13598;DHT22;38563;54.258;12.574;2022-10-24T01:26:26;14.00;99.90
13598;DHT22;38563;54.258;12.574;2022-10-24T01:29:02;14.10;99.90
13598;DHT22;38563;54.258;12.574;2022-10-24T01:31:36;14.10;99.90
13598;DHT22;38563;54.258;12.574;2022-10-24T01:34:09;14.10;99.90
13598;DHT22;38563;54.258;12.574;2022-10-24T01:36:41;14.10;99.90
13598;DHT22;38563;54.258;12.574;2022-10-24T01:39:12;14.10;99.90
13598;DHT22;38563;54.258;12.574;2022-10-24T01:41:41;14.10;99.90
13598;DHT22;38563;54.258;12.574;2022-10-24T01:44:11;14.10;99.90
13598;DHT22;38563;54.258;12.574;2022-10-24T01:46:45;14.10;99.90
13598;DHT22;38563;54.258;12.574;2022-10-24T01:49:17;14.20;99.90
13598;DHT22;38563;54.258;12.574;2022-10-24T01:51:45;14.10;99.90
13598;DHT22;38563;54.258;12.574;2022-10-24T01:54:14;14.10;99.90
13598;DHT22;38563;54.258;12.574;2022-10-24T01:56:41;14.00;99.90
13598;DHT22;38563;54.258;12.574;2022-10-24T01:59:45;14.00;99.90
13598;DHT22;38563;54.258;12.574;2022-10-24T02:02:17;14.00;99.90
13598;DHT22;38563;54.258;12.574;2022-10-24T02:04:48;14.00;99.90
13598;DHT22;38563;54.258;12.574;2022-10-24T02:07:16;14.00;99.90
13598;DHT22;38563;54.258;12.574;2022-10-24T02:09:47;13.90;99.90
13598;DHT22;38563;54.258;12.574;2022-10-24T02:12:16;13.90;99.90
13598;DHT22;38563;54.258;12.574;2022-10-24T02:14:47;13.80;99.90
13598;DHT22;38563;54.258;12.574;2022-10-24T02:17:16;13.70;99.90
13598;DHT22;38563;54.258;12.574;2022-10-24T02:19:44;13.70;99.90
13598;DHT22;38563;54.258;12.574;2022-10-24T02:22:18;13.70;99.90
13598;DHT22;38563;54.258;12.574;2022-10-24T02:24:50;13.70;99.90
13598;DHT22;38563;54.258;12.574;2022-10-24T02:27:21;13.60;99.90
13598;DHT22;38563;54.258;12.574;2022-10-24T02:29:54;13.70;99.90
13598;DHT22;38563;54.258;12.574;2022-10-24T02:32:26;13.60;99.90
13598;DHT22;38563;54.258;12.574;2022-10-24T02:34:54;13.60;99.90
13598;DHT22;38563;54.258;12.574;2022-10-24T02:37:22;13.60;99.90
13598;DHT22;38563;54.258;12.574;2022-10-24T02:39:51;13.60;99.90
13598;DHT22;38563;54.258;12.574;2022-10-24T02:42:19;13.60;99.90
13598;DHT22;38563;54.258;12.574;2022-10-24T02:44:48;13.60;99.90
13598;DHT22;38563;54.258;12.574;2022-10-24T02:47:18;13.60;99.90
13598;DHT22;38563;54.258;12.574;2022-10-24T02:49:46;13.60;99.90
13598;DHT22;38563;54.258;12.574;2022-10-24T02:52:14;13.60;99.90
13598;DHT22;38563;54.258;12.574;2022-10-24T02:54:41;13.60;99.90
13598;DHT22;38563;54.258;12.574;2022-10-24T02:57:08;13.60;99.90
13598;DHT22;38563;54.258;12.574;2022-10-24T02:59:34;13.60;99.90
13598;DHT22;38563;54.258;12.574;2022-10-24T03:02:01;13.60;99.90
13598;DHT22;38563;54.258;12.574;2022-10-24T03:04:29;13.60;99.90
13598;DHT22;38563;54.258;12.574;2022-10-24T03:06:56;13.70;99.90
13598;DHT22;38563;54.258;12.574;2022-10-24T03:09:23;13.60;99.90
13598;DHT22;38563;54.258;12.574;2022-10-24T03:11:49;13.70;99.90
13598;DHT22;38563;54.258;12.574;2022-10-24T03:14:16;13.70;99.90
13598;DHT22;38563;54.258;12.574;2022-10-24T03:16:43;13.70;99.90
13598;DHT22;38563;54.258;12.574;2022-10-24T03:19:09;13.70;99.90
13598;DHT22;38563;54.258;12.574;2022-10-24T03:21:37;13.70;99.90
13598;DHT22;38563;54.258;12.574;2022-10-24T03:24:05;13.70;99.90
13598;DHT22;38563;54.258;12.574;2022-10-24T03:26:32;13.80;99.90
13598;DHT22;38563;54.258;12.574;2022-10-24T03:28:59;13.80;99.90
13598;DHT22;38563;54.258;12.574;2022-10-24T03:31:26;13.90;99.90
13598;DHT22;38563;54.258;12.574;2022-10-24T03:33:55;13.80;99.90
13598;DHT22;38563;54.258;12.574;2022-10-24T03:36:21;13.80;99.90
13598;DHT22;38563;54.258;12.574;2022-10-24T03:38:50;13.80;99.90
13598;DHT22;38563;54.258;12.574;2022-10-24T03:41:16;13.90;99.90
13598;DHT22;38563;54.258;12.574;2022-10-24T03:43:43;13.80;99.90
13598;DHT22;38563;54.258;12.574;2022-10-24T03:46:10;13.80;99.90
13598;DHT22;38563;54.258;12.574;2022-10-24T03:48:36;13.80;99.90
13598;DHT22;38563;54.258;12.574;2022-10-24T03:51:03;13.80;99.90
13598;DHT22;38563;54.258;12.574;2022-10-24T03:53:32;13.80;99.90
13598;DHT22;38563;54.258;12.574;2022-10-24T03:56:00;13.90;99.90
13598;DHT22;38563;54.258;12.574;2022-10-24T03:58:27;13.80;99.90
13598;DHT22;38563;54.258;12.574;2022-10-24T04:00:54;13.80;99.90
13598;DHT22;38563;54.258;12.574;2022-10-24T04:03:23;13.70;99.90
13598;DHT22;38563;54.258;12.574;2022-10-24T04:05:50;13.70;99.90
13598;DHT22;38563;54.258;12.574;2022-10-24T04:08:17;13.60;99.90
13598;DHT22;38563;54.258;12.574;2022-10-24T04:10:44;13.50;99.90
13598;DHT22;38563;54.258;12.574;2022-10-24T04:13:12;13.50;99.90
13598;DHT22;38563;54.258;12.574;2022-10-24T04:15:39;13.50;99.90
13598;DHT22;38563;54.258;12.574;2022-10-24T04:18:06;13.40;99.90
13598;DHT22;38563;54.258;12.574;2022-10-24T04:20:34;13.40;99.90
13598;DHT22;38563;54.258;12.574;2022-10-24T04:23:01;13.40;99.90
13598;DHT22;38563;54.258;12.574;2022-10-24T04:25:28;13.40;99.90
13598;DHT22;38563;54.258;12.574;2022-10-24T04:27:55;13.30;99.90
13598;DHT22;38563;54.258;12.574;2022-10-24T04:30:23;13.30;99.90
13598;DHT22;38563;54.258;12.574;2022-10-24T04:32:49;13.20;99.90
13598;DHT22;38563;54.258;12.574;2022-10-24T04:35:16;13.10;99.90
13598;DHT22;38563;54.258;12.574;2022-10-24T04:37:43;13.10;99.90
13598;DHT22;38563;54.258;12.574;2022-10-24T04:40:10;13.10;99.90
13598;DHT22;38563;54.258;12.574;2022-10-24T04:42:37;13.10;99.90
13598;DHT22;38563;54.258;12.574;2022-10-24T04:45:05;13.10;99.90
13598;DHT22;38563;54.258;12.574;2022-10-24T04:47:34;13.10;99.90
13598;DHT22;38563;54.258;12.574;2022-10-24T04:50:00;13.10;99.90
13598;DHT22;38563;54.258;12.574;2022-10-24T04:52:27;13.10;99.90
13598;DHT22;38563;54.258;12.574;2022-10-24T04:54:55;13.10;99.90
13598;DHT22;38563;54.258;12.574;2022-10-24T04:57:21;13.10;99.90
13598;DHT22;38563;54.258;12.574;2022-10-24T04:59:48;13.10;99.90
13598;DHT22;38563;54.258;12.574;2022-10-24T05:02:15;13.00;99.90
13598;DHT22;38563;54.258;12.574;2022-10-24T05:04:43;13.00;99.90
13598;DHT22;38563;54.258;12.574;2022-10-24T05:07:09;13.00;99.90
13598;DHT22;38563;54.258;12.574;2022-10-24T05:09:36;13.00;99.90
13598;DHT22;38563;54.258;12.574;2022-10-24T05:12:04;13.00;99.90
13598;DHT22;38563;54.258;12.574;2022-10-24T05:14:30;12.90;99.90
13598;DHT22;38563;54.258;12.574;2022-10-24T05:16:57;12.90;99.90
13598;DHT22;38563;54.258;12.574;2022-10-24T05:19:24;12.90;99.90
13598;DHT22;38563;54.258;12.574;2022-10-24T05:21:52;12.80;99.90
13598;DHT22;38563;54.258;12.574;2022-10-24T05:24:19;12.80;99.90
13598;DHT22;38563;54.258;12.574;2022-10-24T05:26:45;12.80;99.90
13598;DHT22;38563;54.258;12.574;2022-10-24T05:29:12;12.70;99.90
13598;DHT22;38563;54.258;12.574;2022-10-24T05:31:39;12.70;99.90
13598;DHT22;38563;54.258;12.574;2022-10-24T05:34:05;12.70;99.90
13598;DHT22;38563;54.258;12.574;2022-10-24T05:36:32;12.70;99.90
13598;DHT22;38563;54.258;12.574;2022-10-24T05:39:00;12.70;99.90
13598;DHT22;38563;54.258;12.574;2022-10-24T05:41:27;12.70;99.90
13598;DHT22;38563;54.258;12.574;2022-10-24T05:43:53;12.70;99.90
13598;DHT22;38563;54.258;12.574;2022-10-24T05:46:20;12.60;99.90
13598;DHT22;38563;54.258;12.574;2022-10-24T05:48:47;12.60;99.90
13598;DHT22;38563;54.258;12.574;2022-10-24T05:51:13;12.50;99.90
13598;DHT22;38563;54.258;12.574;2022-10-24T05:53:40;12.60;99.90
13598;DHT22;38563;54.258;12.574;2022-10-24T05:56:08;12.50;99.90
13598;DHT22;38563;54.258;12.574;2022-10-24T05:58:35;12.60;99.90
13598;DHT22;38563;54.258;12.574;2022-10-24T06:01:02;12.60;99.90
13598;DHT22;38563;54.258;12.574;2022-10-24T06:03:29;12.50;99.90
13598;DHT22;38563;54.258;12.574;2022-10-24T06:05:55;12.50;99.90
13598;DHT22;38563;54.258;12.574;2022-10-24T06:08:22;12.50;99.90
13598;DHT22;38563;54.258;12.574;2022-10-24T06:10:49;12.60;99.90
13598;DHT22;38563;54.258;12.574;2022-10-24T06:13:17;12.50;99.90
13598;DHT22;38563;54.258;12.574;2022-10-24T06:15:44;12.50;99.90
13598;DHT22;38563;54.258;12.574;2022-10-24T06:18:11;12.50;99.90
13598;DHT22;38563;54.258;12.574;2022-10-24T06:20:38;12.60;99.90
13598;DHT22;38563;54.258;12.574;2022-10-24T06:23:04;12.60;99.90
13598;DHT22;38563;54.258;12.574;2022-10-24T06:25:31;12.60;99.90
13598;DHT22;38563;54.258;12.574;2022-10-24T06:27:58;12.60;99.90
13598;DHT22;38563;54.258;12.574;2022-10-24T06:30:26;12.60;99.90
13598;DHT22;38563;54.258;12.574;2022-10-24T06:32:53;12.60;99.90
13598;DHT22;38563;54.258;12.574;2022-10-24T06:35:20;12.70;99.90
13598;DHT22;38563;54.258;12.574;2022-10-24T06:37:46;12.70;99.90
13598;DHT22;38563;54.258;12.574;2022-10-24T06:40:13;12.70;99.90
13598;DHT22;38563;54.258;12.574;2022-10-24T06:42:40;12.70;99.90
13598;DHT22;38563;54.258;12.574;2022-10-24T06:45:07;12.70;99.90
13598;DHT22;38563;54.258;12.574;2022-10-24T06:47:35;12.70;99.90
13598;DHT22;38563;54.258;12.574;2022-10-24T06:50:03;12.70;99.90
13598;DHT22;38563;54.258;12.574;2022-10-24T06:52:29;12.70;99.90
13598;DHT22;38563;54.258;12.574;2022-10-24T06:54:56;12.70;99.90
13598;DHT22;38563;54.258;12.574;2022-10-24T06:57:23;12.70;99.90
13598;DHT22;38563;54.258;12.574;2022-10-24T06:59:50;12.70;99.90
13598;DHT22;38563;54.258;12.574;2022-10-24T07:02:17;12.70;99.90
13598;DHT22;38563;54.258;12.574;2022-10-24T07:04:45;12.70;99.90
13598;DHT22;38563;54.258;12.574;2022-10-24T07:07:14;12.70;99.90
13598;DHT22;38563;54.258;12.574;2022-10-24T07:09:41;12.80;99.90
13598;DHT22;38563;54.258;12.574;2022-10-24T07:12:08;12.80;99.90
13598;DHT22;38563;54.258;12.574;2022-10-24T07:14:34;12.80;99.90
13598;DHT22;38563;54.258;12.574;2022-10-24T07:17:01;12.90;99.90
13598;DHT22;38563;54.258;12.574;2022-10-24T07:19:28;13.00;99.90
13598;DHT22;38563;54.258;12.574;2022-10-24T07:21:56;13.00;99.90
13598;DHT22;38563;54.258;12.574;2022-10-24T07:24:23;13.00;99.90
13598;DHT22;38563;54.258;12.574;2022-10-24T07:26:50;13.10;99.90
13598;DHT22;38563;54.258;12.574;2022-10-24T07:29:16;13.10;99.90
13598;DHT22;38563;54.258;12.574;2022-10-24T07:31:45;13.20;99.90
13598;DHT22;38563;54.258;12.574;2022-10-24T07:34:12;13.10;99.90
13598;DHT22;38563;54.258;12.574;2022-10-24T07:36:39;13.20;99.90
13598;DHT22;38563;54.258;12.574;2022-10-24T07:39:07;13.20;99.90
13598;DHT22;38563;54.258;12.574;2022-10-24T07:41:37;13.20;99.90
13598;DHT22;38563;54.258;12.574;2022-10-24T07:44:05;13.30;99.90
13598;DHT22;38563;54.258;12.574;2022-10-24T07:46:32;13.30;99.90
13598;DHT22;38563;54.258;12.574;2022-10-24T07:48:58;13.40;99.90
13598;DHT22;38563;54.258;12.574;2022-10-24T07:51:25;13.40;99.90
13598;DHT22;38563;54.258;12.574;2022-10-24T07:53:53;13.50;99.90
13598;DHT22;38563;54.258;12.574;2022-10-24T07:56:21;13.50;99.90
13598;DHT22;38563;54.258;12.574;2022-10-24T07:58:47;13.60;99.90
13598;DHT22;38563;54.258;12.574;2022-10-24T08:01:16;13.70;99.90
13598;DHT22;38563;54.258;12.574;2022-10-24T08:03:43;13.80;99.90
13598;DHT22;38563;54.258;12.574;2022-10-24T08:06:13;13.80;99.90
13598;DHT22;38563;54.258;12.574;2022-10-24T08:08:40;13.90;99.90
13598;DHT22;38563;54.258;12.574;2022-10-24T08:11:07;13.90;99.90
13598;DHT22;38563;54.258;12.574;2022-10-24T08:13:36;13.90;99.90
13598;DHT22;38563;54.258;12.574;2022-10-24T08:16:04;14.00;99.90
13598;DHT22;38563;54.258;12.574;2022-10-24T08:18:31;14.00;99.90
13598;DHT22;38563;54.258;12.574;2022-10-24T08:20:59;14.10;99.90
13598;DHT22;38563;54.258;12.574;2022-10-24T08:23:27;14.10;99.90
13598;DHT22;38563;54.258;12.574;2022-10-24T08:25:53;14.20;99.90
13598;DHT22;38563;54.258;12.574;2022-10-24T08:28:20;14.30;99.90
13598;DHT22;38563;54.258;12.574;2022-10-24T08:30:55;14.30;99.90
13598;DHT22;38563;54.258;12.574;2022-10-24T08:33:22;14.40;99.90
13598;DHT22;38563;54.258;12.574;2022-10-24T08:35:49;14.40;99.90
13598;DHT22;38563;54.258;12.574;2022-10-24T08:38:16;14.40;99.90
13598;DHT22;38563;54.258;12.574;2022-10-24T08:40:45;14.40;99.90
13598;DHT22;38563;54.258;12.574;2022-10-24T08:43:14;14.50;99.90
13598;DHT22;38563;54.258;12.574;2022-10-24T08:45:51;14.50;99.90
13598;DHT22;38563;54.258;12.574;2022-10-24T08:48:26;14.50;99.90
13598;DHT22;38563;54.258;12.574;2022-10-24T08:51:00;14.60;99.90
13598;DHT22;38563;54.258;12.574;2022-10-24T08:53:30;14.60;99.90
13598;DHT22;38563;54.258;12.574;2022-10-24T08:55:59;14.70;99.90
13598;DHT22;38563;54.258;12.574;2022-10-24T08:58:28;14.70;99.90
13598;DHT22;38563;54.258;12.574;2022-10-24T09:00:57;14.70;99.90
13598;DHT22;38563;54.258;12.574;2022-10-24T09:03:30;14.70;99.90
13598;DHT22;38563;54.258;12.574;2022-10-24T09:06:00;14.70;99.90
13598;DHT22;38563;54.258;12.574;2022-10-24T09:08:32;14.70;99.90
13598;DHT22;38563;54.258;12.574;2022-10-24T09:11:03;14.70;99.90
13598;DHT22;38563;54.258;12.574;2022-10-24T09:13:31;14.70;99.90
13598;DHT22;38563;54.258;12.574;2022-10-24T09:15:59;14.80;99.90
13598;DHT22;38563;54.258;12.574;2022-10-24T09:18:31;14.90;99.90
13598;DHT22;38563;54.258;12.574;2022-10-24T09:20:59;14.90;99.90
13598;DHT22;38563;54.258;12.574;2022-10-24T09:23:27;15.00;99.90
13598;DHT22;38563;54.258;12.574;2022-10-24T09:25:55;15.10;99.90
13598;DHT22;38563;54.258;12.574;2022-10-24T09:28:23;15.20;99.90
13598;DHT22;38563;54.258;12.574;2022-10-24T09:30:50;15.30;99.90
13598;DHT22;38563;54.258;12.574;2022-10-24T09:33:24;15.40;99.90
13598;DHT22;38563;54.258;12.574;2022-10-24T09:35:55;15.40;99.90
13598;DHT22;38563;54.258;12.574;2022-10-24T09:38:30;15.40;99.90
13598;DHT22;38563;54.258;12.574;2022-10-24T09:41:01;15.50;99.90
13598;DHT22;38563;54.258;12.574;2022-10-24T09:43:34;15.50;99.90
13598;DHT22;38563;54.258;12.574;2022-10-24T09:46:05;15.60;99.90
13598;DHT22;38563;54.258;12.574;2022-10-24T09:48:38;15.60;99.90
13598;DHT22;38563;54.258;12.574;2022-10-24T09:51:19;15.70;99.90
13598;DHT22;38563;54.258;12.574;2022-10-24T09:53:59;15.70;99.90
13598;DHT22;38563;54.258;12.574;2022-10-24T09:56:33;15.70;99.90
13598;DHT22;38563;54.258;12.574;2022-10-24T09:59:17;15.80;99.90
13598;DHT22;38563;54.258;12.574;2022-10-24T10:01:45;15.90;99.90
13598;DHT22;38563;54.258;12.574;2022-10-24T10:04:16;15.90;99.90
13598;DHT22;38563;54.258;12.574;2022-10-24T10:06:46;16.00;99.90
13598;DHT22;38563;54.258;12.574;2022-10-24T10:09:15;16.20;99.90
13598;DHT22;38563;54.258;12.574;2022-10-24T10:11:54;16.20;99.90
13598;DHT22;38563;54.258;12.574;2022-10-24T10:14:23;16.30;99.90
13598;DHT22;38563;54.258;12.574;2022-10-24T10:16:58;16.40;99.90
13598;DHT22;38563;54.258;12.574;2022-10-24T10:19:25;16.40;99.90
13598;DHT22;38563;54.258;12.574;2022-10-24T10:21:57;16.40;99.90
13598;DHT22;38563;54.258;12.574;2022-10-24T10:24:26;16.40;99.90
13598;DHT22;38563;54.258;12.574;2022-10-24T10:26:53;16.50;99.90
13598;DHT22;38563;54.258;12.574;2022-10-24T10:29:22;16.60;99.90
13598;DHT22;38563;54.258;12.574;2022-10-24T10:31:50;16.70;99.90
13598;DHT22;38563;54.258;12.574;2022-10-24T10:34:24;16.70;99.90
13598;DHT22;38563;54.258;12.574;2022-10-24T10:37:23;16.70;99.90
13598;DHT22;38563;54.258;12.574;2022-10-24T10:40:07;16.80;99.90
13598;DHT22;38563;54.258;12.574;2022-10-24T10:42:38;16.90;99.90
13598;DHT22;38563;54.258;12.574;2022-10-24T10:45:14;17.00;99.90
13598;DHT22;38563;54.258;12.574;2022-10-24T10:47:50;17.00;99.90
13598;DHT22;38563;54.258;12.574;2022-10-24T10:50:29;17.10;99.90
13598;DHT22;38563;54.258;12.574;2022-10-24T10:53:07;17.20;99.90
13598;DHT22;38563;54.258;12.574;2022-10-24T10:55:39;17.30;99.90
13598;DHT22;38563;54.258;12.574;2022-10-24T10:58:20;17.50;99.90
13598;DHT22;38563;54.258;12.574;2022-10-24T11:00:54;17.70;99.90
13598;DHT22;38563;54.258;12.574;2022-10-24T11:03:31;17.70;99.90
13598;DHT22;38563;54.258;12.574;2022-10-24T11:06:15;17.80;99.90
13598;DHT22;38563;54.258;12.574;2022-10-24T11:11:47;17.90;99.90
13598;DHT22;38563;54.258;12.574;2022-10-24T11:14:21;17.90;99.90
13598;DHT22;38563;54.258;12.574;2022-10-24T11:16:52;17.90;99.90
13598;DHT22;38563;54.258;12.574;2022-10-24T11:19:23;17.90;99.90
13598;DHT22;38563;54.258;12.574;2022-10-24T11:21:51;18.00;99.90
13598;DHT22;38563;54.258;12.574;2022-10-24T11:24:22;18.00;99.90
13598;DHT22;38563;54.258;12.574;2022-10-24T11:26:53;18.00;99.90
13598;DHT22;38563;54.258;12.574;2022-10-24T11:29:27;18.10;99.90
13598;DHT22;38563;54.258;12.574;2022-10-24T11:31:59;18.10;99.90
13598;DHT22;38563;54.258;12.574;2022-10-24T11:34:32;18.20;99.90
13598;DHT22;38563;54.258;12.574;2022-10-24T11:37:03;18.30;99.90
13598;DHT22;38563;54.258;12.574;2022-10-24T11:39:38;18.30;99.90
13598;DHT22;38563;54.258;12.574;2022-10-24T11:42:11;18.30;99.90
13598;DHT22;38563;54.258;12.574;2022-10-24T11:44:46;18.30;99.90
13598;DHT22;38563;54.258;12.574;2022-10-24T11:47:38;18.30;99.90
13598;DHT22;38563;54.258;12.574;2022-10-24T11:50:12;18.20;99.90
13598;DHT22;38563;54.258;12.574;2022-10-24T11:52:43;18.20;99.90
13598;DHT22;38563;54.258;12.574;2022-10-24T11:55:17;18.20;99.90
13598;DHT22;38563;54.258;12.574;2022-10-24T11:57:45;18.20;99.90
13598;DHT22;38563;54.258;12.574;2022-10-24T12:00:18;18.30;99.90
13598;DHT22;38563;54.258;12.574;2022-10-24T12:03:12;18.30;99.90
13598;DHT22;38563;54.258;12.574;2022-10-24T12:05:57;18.30;99.90
13598;DHT22;38563;54.258;12.574;2022-10-24T12:08:40;18.30;99.90
13598;DHT22;38563;54.258;12.574;2022-10-24T12:11:30;18.40;99.90
13598;DHT22;38563;54.258;12.574;2022-10-24T12:14:29;18.40;99.90
13598;DHT22;38563;54.258;12.574;2022-10-24T12:17:14;18.40;99.90
13598;DHT22;38563;54.258;12.574;2022-10-24T12:19:43;18.40;99.90
13598;DHT22;38563;54.258;12.574;2022-10-24T12:22:15;18.40;99.90
13598;DHT22;38563;54.258;12.574;2022-10-24T12:24:43;18.40;99.90
13598;DHT22;38563;54.258;12.574;2022-10-24T12:27:21;18.40;99.90
13598;DHT22;38563;54.258;12.574;2022-10-24T12:30:00;18.40;99.90
13598;DHT22;38563;54.258;12.574;2022-10-24T12:32:35;18.40;99.90
13598;DHT22;38563;54.258;12.574;2022-10-24T12:35:43;18.40;99.90
13598;DHT22;38563;54.258;12.574;2022-10-24T12:38:17;18.50;99.90
13598;DHT22;38563;54.258;12.574;2022-10-24T12:40:54;18.60;99.90
13598;DHT22;38563;54.258;12.574;2022-10-24T12:43:33;18.60;99.90
13598;DHT22;38563;54.258;12.574;2022-10-24T12:49:17;18.50;99.90
13598;DHT22;38563;54.258;12.574;2022-10-24T12:51:45;18.50;99.90
13598;DHT22;38563;54.258;12.574;2022-10-24T12:54:16;18.60;99.90
13598;DHT22;38563;54.258;12.574;2022-10-24T12:57:17;18.60;99.90
13598;DHT22;38563;54.258;12.574;2022-10-24T12:59:48;18.60;99.90
13598;DHT22;38563;54.258;12.574;2022-10-24T13:02:31;18.60;99.90
13598;DHT22;38563;54.258;12.574;2022-10-24T13:05:17;18.70;99.90
13598;DHT22;38563;54.258;12.574;2022-10-24T13:07:59;18.80;99.90
13598;DHT22;38563;54.258;12.574;2022-10-24T13:10:41;18.80;99.90
13598;DHT22;38563;54.258;12.574;2022-10-24T13:13:27;18.80;99.90
13598;DHT22;38563;54.258;12.574;2022-10-24T13:16:02;18.90;99.90
13598;DHT22;38563;54.258;12.574;2022-10-24T13:18:42;18.80;99.90
13598;DHT22;38563;54.258;12.574;2022-10-24T13:21:16;18.70;99.90
13598;DHT22;38563;54.258;12.574;2022-10-24T13:23:44;18.60;99.90
13598;DHT22;38563;54.258;12.574;2022-10-24T13:26:35;18.60;99.90
13598;DHT22;38563;54.258;12.574;2022-10-24T13:29:02;18.70;99.90
13598;DHT22;38563;54.258;12.574;2022-10-24T13:31:46;18.60;99.90
13598;DHT22;38563;54.258;12.574;2022-10-24T13:34:26;18.60;99.90
13598;DHT22;38563;54.258;12.574;2022-10-24T13:37:22;18.60;99.90
13598;DHT22;38563;54.258;12.574;2022-10-24T13:39:51;18.50;99.90
13598;DHT22;38563;54.258;12.574;2022-10-24T13:42:26;18.40;99.90
13598;DHT22;38563;54.258;12.574;2022-10-24T13:44:58;18.40;99.90
13598;DHT22;38563;54.258;12.574;2022-10-24T13:47:29;18.50;99.90
13598;DHT22;38563;54.258;12.574;2022-10-24T13:49:58;18.70;99.90
13598;DHT22;38563;54.258;12.574;2022-10-24T13:52:32;18.90;99.90
13598;DHT22;38563;54.258;12.574;2022-10-24T13:55:04;18.80;99.90
13598;DHT22;38563;54.258;12.574;2022-10-24T13:57:49;18.70;99.90
13598;DHT22;38563;54.258;12.574;2022-10-24T14:00:19;18.70;99.90
13598;DHT22;38563;54.258;12.574;2022-10-24T14:02:47;18.60;99.90
13598;DHT22;38563;54.258;12.574;2022-10-24T14:05:19;18.50;99.90
13598;DHT22;38563;54.258;12.574;2022-10-24T14:07:48;18.40;99.90
13598;DHT22;38563;54.258;12.574;2022-10-24T14:10:15;18.40;99.90
13598;DHT22;38563;54.258;12.574;2022-10-24T14:12:44;18.40;99.90
13598;DHT22;38563;54.258;12.574;2022-10-24T14:15:17;18.40;99.90
13598;DHT22;38563;54.258;12.574;2022-10-24T14:17:57;18.50;99.90
13598;DHT22;38563;54.258;12.574;2022-10-24T14:20:26;18.50;99.90
13598;DHT22;38563;54.258;12.574;2022-10-24T14:22:54;18.50;99.90
13598;DHT22;38563;54.258;12.574;2022-10-24T14:25:22;18.40;99.90
13598;DHT22;38563;54.258;12.574;2022-10-24T14:27:49;18.20;99.90
13598;DHT22;38563;54.258;12.574;2022-10-24T14:30:18;18.00;99.90
13598;DHT22;38563;54.258;12.574;2022-10-24T14:32:45;17.80;99.90
13598;DHT22;38563;54.258;12.574;2022-10-24T14:35:15;17.60;99.90
13598;DHT22;38563;54.258;12.574;2022-10-24T14:37:42;17.50;99.90
13598;DHT22;38563;54.258;12.574;2022-10-24T14:40:15;17.40;99.90
13598;DHT22;38563;54.258;12.574;2022-10-24T14:42:43;17.30;99.90
13598;DHT22;38563;54.258;12.574;2022-10-24T14:45:21;17.40;99.90
13598;DHT22;38563;54.258;12.574;2022-10-24T14:47:50;17.50;99.90
13598;DHT22;38563;54.258;12.574;2022-10-24T14:50:40;17.50;99.90
13598;DHT22;38563;54.258;12.574;2022-10-24T14:53:21;17.50;99.90
13598;DHT22;38563;54.258;12.574;2022-10-24T14:55:50;17.40;99.90
13598;DHT22;38563;54.258;12.574;2022-10-24T14:58:22;17.40;99.90
13598;DHT22;38563;54.258;12.574;2022-10-24T15:00:50;17.40;99.90
13598;DHT22;38563;54.258;12.574;2022-10-24T15:03:17;17.40;99.90
13598;DHT22;38563;54.258;12.574;2022-10-24T15:05:54;17.40;99.90
13598;DHT22;38563;54.258;12.574;2022-10-24T15:08:33;17.40;99.90
13598;DHT22;38563;54.258;12.574;2022-10-24T15:11:11;17.40;99.90
13598;DHT22;38563;54.258;12.574;2022-10-24T15:13:44;17.40;99.90
13598;DHT22;38563;54.258;12.574;2022-10-24T15:16:18;17.40;99.90
13598;DHT22;38563;54.258;12.574;2022-10-24T15:18:47;17.30;99.90
13598;DHT22;38563;54.258;12.574;2022-10-24T15:21:22;17.20;99.90
13598;DHT22;38563;54.258;12.574;2022-10-24T15:23:51;17.10;99.90
13598;DHT22;38563;54.258;12.574;2022-10-24T15:26:23;17.00;99.90
13598;DHT22;38563;54.258;12.574;2022-10-24T15:28:54;16.90;99.90
13598;DHT22;38563;54.258;12.574;2022-10-24T15:31:24;16.70;99.90
13598;DHT22;38563;54.258;12.574;2022-10-24T15:33:53;16.60;99.90
13598;DHT22;38563;54.258;12.574;2022-10-24T15:36:22;16.50;99.90
13598;DHT22;38563;54.258;12.574;2022-10-24T15:38:54;16.50;99.90
13598;DHT22;38563;54.258;12.574;2022-10-24T15:41:21;16.40;99.90
13598;DHT22;38563;54.258;12.574;2022-10-24T15:43:48;16.30;99.90
13598;DHT22;38563;54.258;12.574;2022-10-24T15:46:15;16.20;99.90